Time;durP1;ratioP1;P1;durP2;ratioP2;P2;SDS_P1;SDS_P2;PMS_P1;PMS_P2;Temp;Humidity;BMP_temperature;BMP_pressure;BME280_temperature;BME280_humidity;BME280_pressure;Samples;Min_cycle;Max_cycle;Signal;HPM_P1;HPM_P2
2022/01/05 00:00:08;;;;;;;12.80;1.63;;;0.00;99.90;;;;;;5071354;28;20109;-40
2022/01/05 00:02:35;;;;;;;6.78;0.70;;;0.00;99.90;;;;;;5071481;28;20098;-40
2022/01/05 00:05:04;;;;;;;11.35;1.90;;;0.00;99.90;;;;;;5070989;28;20103;-41
2022/01/05 00:07:30;;;;;;;12.40;1.13;;;0.00;99.90;;;;;;5071164;28;20102;-40
2022/01/05 00:09:56;;;;;;;15.80;1.42;;;0.00;99.90;;;;;;5068726;28;20075;-40
2022/01/05 00:12:21;;;;;;;12.93;2.40;;;-0.10;99.90;;;;;;5071175;28;20052;-40
2022/01/05 00:14:47;;;;;;;13.18;1.55;;;0.00;99.90;;;;;;5071122;28;20155;-41
2022/01/05 00:17:13;;;;;;;16.27;2.13;;;0.10;99.90;;;;;;5071337;28;20040;-40
2022/01/05 00:19:39;;;;;;;13.68;2.20;;;0.10;99.90;;;;;;5070987;28;20041;-40
2022/01/05 00:22:06;;;;;;;12.93;1.55;;;0.20;99.90;;;;;;5071191;28;20043;-40
2022/01/05 00:24:32;;;;;;;11.18;1.88;;;0.30;99.90;;;;;;5071000;28;20055;-40
2022/01/05 00:26:58;;;;;;;14.13;1.70;;;0.30;99.90;;;;;;5071088;28;20434;-40
2022/01/05 00:29:23;;;;;;;23.35;2.63;;;0.40;99.90;;;;;;5070854;28;20044;-40
2022/01/05 00:31:49;;;;;;;14.48;1.80;;;0.40;99.90;;;;;;5071724;28;20091;-41
2022/01/05 00:34:15;;;;;;;11.77;2.22;;;0.40;99.90;;;;;;5070597;28;20055;-40
2022/01/05 00:36:41;;;;;;;10.35;1.63;;;0.30;99.90;;;;;;5071955;28;20386;-41
2022/01/05 00:39:06;;;;;;;14.65;1.58;;;0.40;99.90;;;;;;5071834;28;20123;-41
2022/01/05 00:41:32;;;;;;;15.48;1.38;;;0.50;99.90;;;;;;5071555;28;20075;-40
2022/01/05 00:43:58;;;;;;;12.20;1.48;;;0.40;99.90;;;;;;5071442;28;20048;-42
2022/01/05 00:46:24;;;;;;;15.00;1.30;;;0.50;99.90;;;;;;5071635;28;20141;-41
2022/01/05 00:48:49;;;;;;;18.98;2.08;;;0.50;99.90;;;;;;5071254;28;20056;-40
2022/01/05 00:51:16;;;;;;;11.38;0.93;;;0.60;99.90;;;;;;5071981;28;20045;-41
2022/01/05 00:53:42;;;;;;;15.07;1.23;;;0.50;99.90;;;;;;5071345;28;20037;-40
2022/01/05 00:56:08;;;;;;;16.90;1.23;;;0.60;99.90;;;;;;5071752;28;20047;-41
2022/01/05 00:58:33;;;;;;;21.85;1.10;;;0.50;99.90;;;;;;5071635;28;20040;-41
2022/01/05 01:00:59;;;;;;;15.68;1.38;;;0.60;99.90;;;;;;5071341;28;20094;-40
2022/01/05 01:03:28;;;;;;;22.65;1.02;;;0.60;99.90;;;;;;5071588;28;20037;-40
2022/01/05 01:05:55;;;;;;;11.77;1.33;;;0.50;99.90;;;;;;5071449;28;20041;-41
2022/01/05 01:08:21;;;;;;;15.57;2.25;;;0.50;99.90;;;;;;5071199;28;20502;-40
2022/01/05 01:10:47;;;;;;;15.68;1.45;;;0.50;99.90;;;;;;5071142;28;20071;-40
2022/01/05 01:13:17;;;;;;;14.40;0.88;;;0.70;99.90;;;;;;5071511;28;20033;-40
2022/01/05 01:15:48;;;;;;;10.48;1.08;;;0.70;99.90;;;;;;5071046;28;20033;-40
2022/01/05 01:18:15;;;;;;;21.40;1.20;;;0.70;99.90;;;;;;5070901;28;20463;-40
2022/01/05 01:20:41;;;;;;;18.38;1.35;;;0.80;99.90;;;;;;5071144;28;20036;-40
2022/01/05 01:23:07;;;;;;;21.13;1.30;;;0.80;99.90;;;;;;5070725;28;20510;-40
2022/01/05 01:25:33;;;;;;;15.43;1.67;;;0.80;99.90;;;;;;5071160;28;20066;-40
2022/01/05 01:27:59;;;;;;;18.20;1.67;;;0.70;99.90;;;;;;5070759;28;20433;-40
2022/01/05 01:30:24;;;;;;;17.10;1.30;;;0.70;99.90;;;;;;5070514;28;20037;-40
2022/01/05 01:32:50;;;;;;;16.02;1.42;;;0.70;99.90;;;;;;5070394;28;20044;-40
2022/01/05 01:35:16;;;;;;;12.77;1.15;;;0.70;99.90;;;;;;5070990;28;20147;-41
2022/01/05 01:37:42;;;;;;;13.95;1.23;;;0.70;99.90;;;;;;5064069;28;20039;-40
2022/01/05 01:40:08;;;;;;;17.08;2.75;;;0.60;99.90;;;;;;5050684;28;20052;-40
2022/01/05 01:42:34;;;;;;;10.95;1.20;;;0.70;99.90;;;;;;5050812;28;20037;-41
2022/01/05 01:45:01;;;;;;;7.80;0.80;;;0.60;99.90;;;;;;5050760;28;20053;-41
2022/01/05 01:47:27;;;;;;;11.02;0.82;;;0.60;99.90;;;;;;5050686;28;20479;-41
2022/01/05 01:49:52;;;;;;;8.45;0.75;;;1.50;99.90;;;;;;5050417;28;20080;-41
2022/01/05 01:52:18;;;;;;;12.60;1.05;;;0.60;99.90;;;;;;5050975;28;20045;-40
2022/01/05 01:54:44;;;;;;;15.82;1.33;;;0.60;99.90;;;;;;5050422;28;20053;-40
2022/01/05 01:57:11;;;;;;;11.40;1.50;;;0.60;99.90;;;;;;5050795;28;20118;-40
2022/01/05 01:59:37;;;;;;;6.70;1.25;;;0.70;99.90;;;;;;5051134;28;20386;-40
2022/01/05 02:02:03;;;;;;;16.25;1.23;;;0.70;99.90;;;;;;5051086;28;20045;-40
2022/01/05 02:04:29;;;;;;;9.88;1.00;;;0.60;99.90;;;;;;5050938;28;20047;-40
2022/01/05 02:06:55;;;;;;;9.20;1.17;;;0.60;99.90;;;;;;5050829;28;20120;-40
2022/01/05 02:09:21;;;;;;;15.23;1.80;;;0.60;99.90;;;;;;5050791;28;20045;-40
2022/01/05 02:11:46;;;;;;;11.38;1.50;;;0.60;99.90;;;;;;5050627;28;20045;-40
2022/01/05 02:14:12;;;;;;;14.02;2.53;;;0.60;99.90;;;;;;5051070;28;20037;-40
2022/01/05 02:16:42;;;;;;;12.25;2.10;;;0.60;99.90;;;;;;5050435;28;20391;-40
2022/01/05 02:19:08;;;;;;;10.20;0.95;;;0.60;99.90;;;;;;5050974;28;20045;-41
2022/01/05 02:21:36;;;;;;;14.07;1.45;;;0.70;99.90;;;;;;5050469;28;20136;-40
2022/01/05 02:24:04;;;;;;;15.88;1.33;;;0.70;99.90;;;;;;5050368;28;20056;-40
2022/01/05 02:26:30;;;;;;;11.63;1.08;;;0.70;99.90;;;;;;5051088;28;20406;-40
2022/01/05 02:28:56;;;;;;;9.68;0.68;;;0.70;99.90;;;;;;5050249;28;20368;-40
2022/01/05 02:31:22;;;;;;;19.02;2.00;;;0.60;99.90;;;;;;5050456;28;20041;-40
2022/01/05 02:33:48;;;;;;;12.27;1.10;;;0.70;99.90;;;;;;5054259;28;20041;-40
2022/01/05 02:36:18;;;;;;;13.32;1.25;;;0.70;99.90;;;;;;5054266;28;20041;-40
2022/01/05 02:38:44;;;;;;;16.08;1.08;;;0.70;99.90;;;;;;5065648;28;20056;-40
2022/01/05 02:41:11;;;;;;;21.38;1.88;;;0.80;99.90;;;;;;5074573;28;20516;-40
2022/01/05 02:43:38;;;;;;;15.05;1.67;;;0.80;99.90;;;;;;5074368;28;20158;-41
2022/01/05 02:46:05;;;;;;;7.93;1.02;;;0.70;99.90;;;;;;5074181;28;20049;-40
2022/01/05 02:48:32;;;;;;;12.23;1.35;;;0.80;99.90;;;;;;5073945;28;20040;-40
2022/01/05 02:50:59;;;;;;;14.50;0.90;;;0.80;99.90;;;;;;5074381;28;20052;-40
2022/01/05 02:53:25;;;;;;;12.68;0.90;;;0.80;99.90;;;;;;5074297;28;20127;-40
2022/01/05 02:55:51;;;;;;;13.80;1.35;;;0.80;99.90;;;;;;5074158;28;20115;-40
2022/01/05 02:58:18;;;;;;;15.88;1.00;;;0.80;99.90;;;;;;5072527;28;20043;-40
2022/01/05 03:00:44;;;;;;;11.07;1.08;;;0.80;99.90;;;;;;5074379;28;20072;-40
2022/01/05 03:03:10;;;;;;;11.52;1.13;;;0.70;99.90;;;;;;5073787;28;20161;-40
2022/01/05 03:05:35;;;;;;;13.93;2.22;;;0.80;99.90;;;;;;5073838;28;20501;-40
2022/01/05 03:08:01;;;;;;;17.25;2.58;;;0.80;99.90;;;;;;5073673;28;20102;-40
2022/01/05 03:10:27;;;;;;;15.93;1.92;;;0.80;99.90;;;;;;5073327;28;20039;-40
2022/01/05 03:12:53;;;;;;;11.38;0.85;;;0.80;99.90;;;;;;5073092;28;20041;-40
2022/01/05 03:15:18;;;;;;;17.73;3.42;;;0.90;99.90;;;;;;5073983;28;20561;-40
2022/01/05 03:17:44;;;;;;;8.40;1.30;;;1.00;99.90;;;;;;5073888;28;20071;-40
2022/01/05 03:20:14;;;;;;;16.58;2.40;;;1.00;99.90;;;;;;5073666;28;20051;-40
2022/01/05 03:22:41;;;;;;;11.98;1.17;;;1.00;99.90;;;;;;5073282;28;20123;-40
2022/01/05 03:25:08;;;;;;;18.48;1.50;;;1.00;99.90;;;;;;5073734;28;20127;-40
2022/01/05 03:27:34;;;;;;;25.55;3.50;;;1.10;99.90;;;;;;5073879;28;20048;-41
2022/01/05 03:30:00;;;;;;;16.70;1.25;;;1.00;99.90;;;;;;5073205;28;20043;-40
2022/01/05 03:32:33;;;;;;;23.27;4.70;;;1.00;99.90;;;;;;5073307;28;20079;-40
2022/01/05 03:34:59;;;;;;;22.13;1.90;;;1.00;99.90;;;;;;5073155;28;20067;-40
2022/01/05 03:37:25;;;;;;;14.68;1.38;;;1.10;99.90;;;;;;5071118;28;20040;-40
2022/01/05 03:39:50;;;;;;;15.20;0.98;;;1.10;99.90;;;;;;5072939;28;20403;-40
2022/01/05 03:42:16;;;;;;;15.63;2.17;;;1.20;99.90;;;;;;5072702;28;20048;-40
2022/01/05 03:44:42;;;;;;;17.40;1.67;;;1.20;99.90;;;;;;5073183;28;20056;-40
2022/01/05 03:47:07;;;;;;;15.02;1.15;;;1.30;99.90;;;;;;5073423;28;20479;-40
2022/01/05 03:49:33;;;;;;;21.70;2.63;;;1.30;99.90;;;;;;5072822;28;20170;-40
2022/01/05 03:51:59;;;;;;;18.30;2.15;;;1.40;99.90;;;;;;5072846;28;20055;-40
2022/01/05 03:54:24;;;;;;;22.10;2.60;;;1.40;99.90;;;;;;5071468;28;20040;-40
2022/01/05 03:56:50;;;;;;;24.45;2.25;;;1.30;99.90;;;;;;5072368;28;20032;-40
2022/01/05 03:59:16;;;;;;;20.50;1.38;;;1.60;99.90;;;;;;5072425;28;20036;-40
2022/01/05 04:01:41;;;;;;;22.50;2.25;;;1.50;99.90;;;;;;5071645;28;20041;-40
2022/01/05 04:04:07;;;;;;;12.05;1.67;;;1.60;99.90;;;;;;5072613;28;20131;-40
2022/01/05 04:06:33;;;;;;;17.95;1.67;;;1.60;99.90;;;;;;5072784;28;20426;-41
2022/01/05 04:08:58;;;;;;;19.33;1.92;;;1.60;99.90;;;;;;5072076;28;20067;-40
2022/01/05 04:11:24;;;;;;;16.58;2.30;;;1.60;99.90;;;;;;5071822;28;20111;-40
2022/01/05 04:13:50;;;;;;;18.73;1.42;;;1.60;99.90;;;;;;5072182;28;20064;-40
2022/01/05 04:16:15;;;;;;;18.23;2.25;;;1.50;99.90;;;;;;5071768;28;20040;-40
2022/01/05 04:18:41;;;;;;;16.00;1.55;;;1.60;99.90;;;;;;5072033;28;20123;-40
2022/01/05 04:21:06;;;;;;;13.10;1.67;;;1.60;99.90;;;;;;5071557;28;20044;-40
2022/01/05 04:23:32;;;;;;;14.50;2.85;;;1.60;99.90;;;;;;5072055;28;20080;-40
2022/01/05 04:25:58;;;;;;;12.30;1.58;;;1.60;99.90;;;;;;5072022;28;20090;-41
2022/01/05 04:28:23;;;;;;;12.23;1.23;;;1.60;99.90;;;;;;5072388;28;20446;-40
2022/01/05 04:30:49;;;;;;;15.02;1.75;;;1.80;99.90;;;;;;5071625;28;20051;-41
2022/01/05 04:33:15;;;;;;;16.27;1.23;;;1.90;99.90;;;;;;5071869;28;20036;-40
2022/01/05 04:35:40;;;;;;;12.85;1.45;;;1.90;99.90;;;;;;5071723;28;20079;-40
2022/01/05 04:38:06;;;;;;;10.93;1.95;;;1.90;99.90;;;;;;5069204;28;20044;-40
2022/01/05 04:40:32;;;;;;;22.05;2.60;;;2.00;99.90;;;;;;5072224;28;20041;-40
2022/01/05 04:42:58;;;;;;;14.48;1.75;;;2.00;99.90;;;;;;5071629;28;20040;-40
2022/01/05 04:45:24;;;;;;;21.95;2.03;;;2.00;99.90;;;;;;5071789;28;20036;-40
2022/01/05 04:47:49;;;;;;;17.73;3.55;;;2.10;99.90;;;;;;5071588;28;20567;-40
2022/01/05 04:50:15;;;;;;;18.98;1.52;;;2.00;99.90;;;;;;5071305;28;20132;-40
2022/01/05 04:52:42;;;;;;;16.42;1.75;;;2.00;99.90;;;;;;5071185;28;20469;-40
2022/01/05 04:55:09;;;;;;;14.95;1.25;;;2.00;99.90;;;;;;5070246;28;20075;-40
2022/01/05 04:57:34;;;;;;;16.27;1.35;;;1.90;99.90;;;;;;5071171;28;20592;-40
2022/01/05 05:00:00;;;;;;;24.80;2.33;;;1.70;99.90;;;;;;5071230;28;20058;-40
2022/01/05 05:02:26;;;;;;;10.68;1.35;;;1.70;99.90;;;;;;5071102;28;20426;-40
2022/01/05 05:04:52;;;;;;;18.63;2.22;;;1.80;99.90;;;;;;5071038;28;20470;-40
2022/01/05 05:07:18;;;;;;;20.63;1.30;;;1.70;99.90;;;;;;5071156;28;20040;-40
2022/01/05 05:09:43;;;;;;;14.85;1.55;;;1.70;99.90;;;;;;5070891;28;20040;-40
2022/01/05 05:12:10;;;;;;;12.68;1.10;;;1.70;99.90;;;;;;5071011;28;20044;-40
2022/01/05 05:14:36;;;;;;;19.65;1.40;;;1.90;99.90;;;;;;5071097;28;20040;-40
2022/01/05 05:17:02;;;;;;;17.05;1.02;;;1.90;99.90;;;;;;5070794;28;20429;-40
2022/01/05 05:19:28;;;;;;;21.60;1.17;;;1.90;99.90;;;;;;5070979;28;20101;-40
2022/01/05 05:21:54;;;;;;;10.50;1.55;;;2.00;99.90;;;;;;5070507;28;20093;-40
2022/01/05 05:24:20;;;;;;;10.55;0.77;;;2.10;99.90;;;;;;5070925;28;20052;-40
2022/01/05 05:26:46;;;;;;;18.73;1.25;;;2.10;99.90;;;;;;5071093;28;20050;-41
2022/01/05 05:29:11;;;;;;;10.80;1.40;;;2.20;99.90;;;;;;5070864;28;20517;-41
2022/01/05 05:31:37;;;;;;;14.43;2.05;;;2.20;99.90;;;;;;5069583;28;20482;-41
2022/01/05 05:34:02;;;;;;;8.45;1.08;;;2.10;99.90;;;;;;5070724;28;20122;-40
2022/01/05 05:36:28;;;;;;;11.50;1.25;;;2.10;99.90;;;;;;5071262;28;20044;-41
2022/01/05 05:38:54;;;;;;;7.30;0.70;;;2.00;99.90;;;;;;5068629;28;20454;-42
2022/01/05 05:41:20;;;;;;;12.63;1.33;;;2.10;99.90;;;;;;5070900;28;20052;-40
2022/01/05 05:43:48;;;;;;;14.43;2.95;;;2.10;99.90;;;;;;5070961;28;20150;-40
2022/01/05 05:46:13;;;;;;;6.45;0.73;;;2.20;99.90;;;;;;5070608;28;20074;-41
2022/01/05 05:48:39;;;;;;;10.23;1.02;;;2.20;99.90;;;;;;5070590;28;20075;-41
2022/01/05 05:51:05;;;;;;;9.52;1.27;;;2.30;99.90;;;;;;5070573;28;20056;-41
2022/01/05 05:53:31;;;;;;;10.70;1.48;;;2.40;99.90;;;;;;5070778;28;20033;-40
2022/01/05 05:55:56;;;;;;;13.55;2.35;;;2.40;99.90;;;;;;5070436;28;20049;-40
2022/01/05 05:58:22;;;;;;;22.42;2.60;;;2.50;99.90;;;;;;5070097;28;20040;-40
2022/01/05 06:00:48;;;;;;;17.15;2.35;;;2.60;99.90;;;;;;5070706;28;20036;-40
2022/01/05 06:03:13;;;;;;;17.55;1.35;;;2.70;99.90;;;;;;5070383;28;20043;-40
2022/01/05 06:05:39;;;;;;;16.20;1.60;;;2.80;99.90;;;;;;5072805;28;20032;-41
2022/01/05 06:08:05;;;;;;;16.17;1.60;;;2.80;99.90;;;;;;5074981;28;20062;-40
2022/01/05 06:10:30;;;;;;;18.45;2.13;;;2.70;99.90;;;;;;5074470;28;20627;-40
2022/01/05 06:12:56;;;;;;;17.20;1.30;;;2.70;99.90;;;;;;5074505;28;20048;-40
2022/01/05 06:15:21;;;;;;;16.17;1.88;;;3.00;99.90;;;;;;5074629;28;20041;-40
2022/01/05 06:17:47;;;;;;;13.07;1.67;;;2.90;99.90;;;;;;5074482;28;20045;-41
2022/01/05 06:20:13;;;;;;;21.63;2.72;;;2.90;99.90;;;;;;5074169;28;20071;-40
2022/01/05 06:22:40;;;;;;;12.75;1.63;;;2.70;99.90;;;;;;5074632;28;20068;-40
2022/01/05 06:25:07;;;;;;;18.48;2.67;;;2.70;99.90;;;;;;5073918;28;20120;-40
2022/01/05 06:27:33;;;;;;;12.43;1.50;;;2.80;99.90;;;;;;5074415;28;20101;-41
2022/01/05 06:30:04;;;;;;;18.08;2.92;;;2.60;99.90;;;;;;5073575;28;20044;-40
2022/01/05 06:32:30;;;;;;;9.10;1.67;;;2.70;99.90;;;;;;5074099;28;20502;-40
2022/01/05 06:34:55;;;;;;;18.80;3.08;;;2.80;99.90;;;;;;5073900;28;20036;-40
2022/01/05 06:37:21;;;;;;;19.13;1.10;;;2.70;99.90;;;;;;5071630;28;20394;-40
2022/01/05 06:39:47;;;;;;;13.82;3.55;;;2.70;99.90;;;;;;5073532;28;20048;-40
2022/01/05 06:42:15;;;;;;;17.70;1.10;;;2.70;99.90;;;;;;5073721;28;20131;-40
2022/01/05 06:44:40;;;;;;;15.55;1.75;;;2.70;99.90;;;;;;5073559;28;20455;-40
2022/01/05 06:47:06;;;;;;;10.40;1.30;;;2.80;99.90;;;;;;5073404;28;20086;-40
2022/01/05 06:49:32;;;;;;;10.23;0.75;;;2.80;99.90;;;;;;5073325;28;20395;-41
2022/01/05 06:51:58;;;;;;;12.23;1.60;;;2.70;99.90;;;;;;5073831;28;20053;-41
2022/01/05 06:54:23;;;;;;;15.63;1.45;;;3.90;99.90;;;;;;5072670;28;20120;-41
2022/01/05 06:56:49;;;;;;;14.77;1.77;;;2.70;99.90;;;;;;5062372;28;20043;-42
2022/01/05 06:59:15;;;;;;;15.20;1.38;;;2.70;99.90;;;;;;5059821;28;20045;-40
2022/01/05 07:01:40;;;;;;;12.10;1.00;;;2.80;99.90;;;;;;5064458;28;20121;-40
2022/01/05 07:04:06;;;;;;;18.50;1.40;;;2.90;99.90;;;;;;5072802;28;20044;-40
2022/01/05 07:06:32;;;;;;;18.92;1.38;;;2.80;99.90;;;;;;5069849;28;20036;-40
2022/01/05 07:08:57;;;;;;;15.23;1.50;;;2.90;99.90;;;;;;5068068;28;20175;-40
2022/01/05 07:11:23;;;;;;;23.10;1.50;;;3.00;99.90;;;;;;5072767;28;20550;-40
2022/01/05 07:13:49;;;;;;;6.30;1.10;;;3.00;99.90;;;;;;5073254;28;20067;-40
2022/01/05 07:16:14;;;;;;;15.32;0.73;;;3.10;99.90;;;;;;5070907;28;20048;-40
2022/01/05 07:18:41;;;;;;;10.45;1.02;;;3.00;99.90;;;;;;5072479;28;20098;-40
2022/01/05 07:21:07;;;;;;;13.48;1.27;;;3.00;99.90;;;;;;5072990;28;20055;-40
2022/01/05 07:23:33;;;;;;;12.10;1.40;;;3.20;99.90;;;;;;5072973;28;20073;-40
2022/01/05 07:25:58;;;;;;;9.77;1.02;;;3.10;99.90;;;;;;5072956;28;20041;-40
2022/01/05 07:28:24;;;;;;;13.40;1.40;;;3.10;99.90;;;;;;5072478;28;20041;-41
2022/01/05 07:30:50;;;;;;;11.02;0.77;;;3.10;99.90;;;;;;5072656;28;20056;-40
2022/01/05 07:33:16;;;;;;;9.15;0.90;;;3.10;99.90;;;;;;5072107;28;20490;-41
2022/01/05 07:35:41;;;;;;;12.32;1.10;;;3.20;99.90;;;;;;5072744;28;20040;-40
2022/01/05 07:38:07;;;;;;;13.98;0.70;;;3.10;99.90;;;;;;5063957;28;20035;-41
2022/01/05 07:40:33;;;;;;;8.73;1.13;;;3.20;99.90;;;;;;5052356;28;20041;-40
2022/01/05 07:42:58;;;;;;;8.00;0.70;;;3.20;99.90;;;;;;5051149;28;20130;-41
2022/01/05 07:45:24;;;;;;;9.98;0.55;;;3.20;99.90;;;;;;5052435;28;20041;-40
2022/01/05 07:47:50;;;;;;;12.85;0.40;;;3.20;99.90;;;;;;5052459;28;20103;-40
2022/01/05 07:50:16;;;;;;;11.40;0.82;;;3.10;99.90;;;;;;5051942;28;20067;-40
2022/01/05 07:52:44;;;;;;;6.03;0.43;;;3.10;99.90;;;;;;5052067;28;20480;-40
2022/01/05 07:55:11;;;;;;;9.68;0.60;;;3.10;99.90;;;;;;5052044;28;20053;-41
2022/01/05 07:57:36;;;;;;;7.45;0.80;;;4.30;99.90;;;;;;5052133;28;20368;-40
2022/01/05 08:00:07;;;;;;;7.22;0.43;;;3.20;99.90;;;;;;5052321;28;20048;-40
2022/01/05 08:02:33;;;;;;;9.38;0.50;;;3.20;99.90;;;;;;5052044;28;20502;-40
2022/01/05 08:04:59;;;;;;;10.00;0.68;;;3.10;99.90;;;;;;5052093;28;20076;-40
2022/01/05 08:07:24;;;;;;;9.38;1.27;;;3.70;99.90;;;;;;5054954;28;21049;-40
2022/01/05 08:09:50;;;;;;;7.35;0.28;;;3.20;99.90;;;;;;5054203;28;20105;-41
2022/01/05 08:12:16;;;;;;;6.18;0.40;;;3.20;99.90;;;;;;5061283;28;20041;-41
2022/01/05 08:14:41;;;;;;;7.72;0.50;;;3.20;99.90;;;;;;5060512;28;20085;-40
2022/01/05 08:17:07;;;;;;;10.35;0.70;;;3.10;99.90;;;;;;5061900;28;20040;-41
2022/01/05 08:19:33;;;;;;;7.18;0.68;;;4.50;99.90;;;;;;5060146;28;20049;-41
2022/01/05 08:21:59;;;;;;;11.57;0.90;;;;;;;;;;5060547;28;20033;-41
2022/01/05 08:24:26;;;;;;;10.98;0.65;;;3.60;99.90;;;;;;5061873;28;20044;-42
2022/01/05 08:26:53;;;;;;;6.50;0.50;;;3.60;99.90;;;;;;5060507;28;20033;-40
2022/01/05 08:29:18;;;;;;;11.52;0.80;;;3.70;99.90;;;;;;5059705;28;20044;-40
2022/01/05 08:31:44;;;;;;;12.77;0.82;;;4.70;99.90;;;;;;5060801;28;20037;-40
2022/01/05 08:34:11;;;;;;;10.23;0.70;;;3.50;99.90;;;;;;5059063;28;20043;-40
2022/01/05 08:36:37;;;;;;;11.43;0.70;;;3.70;99.90;;;;;;5059562;28;20040;-41
2022/01/05 08:39:03;;;;;;;8.18;0.40;;;3.70;99.90;;;;;;5060688;28;20040;-40
2022/01/05 08:41:29;;;;;;;13.25;0.88;;;3.70;99.90;;;;;;5058746;28;20040;-40
2022/01/05 08:43:54;;;;;;;9.93;1.42;;;4.10;99.90;;;;;;5058479;28;20037;-42
2022/01/05 08:46:21;;;;;;;11.15;0.85;;;2.30;99.90;;;;;;5060688;28;20078;-40
2022/01/05 08:48:47;;;;;;;9.32;0.75;;;3.60;99.90;;;;;;5059251;28;20064;-41
2022/01/05 08:51:13;;;;;;;11.07;0.50;;;3.80;99.90;;;;;;5060935;28;20052;-40
2022/01/05 08:53:38;;;;;;;19.27;1.08;;;3.80;99.90;;;;;;5060119;28;20101;-41
2022/01/05 08:56:05;;;;;;;13.13;0.55;;;3.90;99.90;;;;;;5061500;28;20550;-40
2022/01/05 08:58:30;;;;;;;11.75;1.00;;;4.00;99.90;;;;;;5060715;28;20364;-40
2022/01/05 09:00:56;;;;;;;17.25;1.00;;;3.90;99.90;;;;;;5059852;28;20044;-41
2022/01/05 09:03:22;;;;;;;15.05;1.10;;;3.90;99.90;;;;;;5061084;28;20037;-40
2022/01/05 09:05:47;;;;;;;10.18;1.35;;;3.90;99.90;;;;;;5059979;28;20490;-41
2022/01/05 09:08:13;;;;;;;13.30;0.82;;;4.00;99.90;;;;;;5060797;28;20053;-41
2022/01/05 09:10:40;;;;;;;11.18;1.58;;;3.90;99.90;;;;;;5060776;28;20119;-41
2022/01/05 09:13:09;;;;;;;14.15;1.02;;;4.00;99.90;;;;;;5059900;28;20036;-42
2022/01/05 09:15:35;;;;;;;19.65;1.42;;;4.20;99.90;;;;;;5059588;28;20045;-40
2022/01/05 09:18:02;;;;;;;17.30;0.85;;;4.20;99.90;;;;;;5061593;28;20047;-41
2022/01/05 09:20:28;;;;;;;16.70;1.15;;;4.40;99.90;;;;;;5059821;28;20371;-41
2022/01/05 09:22:55;;;;;;;25.00;2.03;;;4.50;99.90;;;;;;5060234;28;20044;-41
2022/01/05 09:25:23;;;;;;;23.52;1.90;;;4.40;99.90;;;;;;5061091;28;20048;-41
2022/01/05 09:27:50;;;;;;;19.83;1.52;;;4.60;99.90;;;;;;5059989;28;20115;-41
2022/01/05 09:30:16;;;;;;;22.35;2.03;;;4.00;99.90;;;;;;5058939;28;20454;-41
2022/01/05 09:32:43;;;;;;;11.82;0.85;;;4.50;99.90;;;;;;5060858;28;20036;-40
2022/01/05 09:35:12;;;;;;;17.00;1.00;;;4.30;99.90;;;;;;5059667;28;20061;-41
2022/01/05 09:37:50;;;;;;;17.67;1.13;;;4.30;99.90;;;;;;5060479;28;20056;-40
2022/01/05 09:43:05;;;;;;;15.10;0.90;;;4.10;99.90;;;;;;5052530;28;20056;-41
2022/01/05 09:45:35;;;;;;;15.63;1.25;;;4.10;99.90;;;;;;5057301;28;20044;-41
2022/01/05 09:48:08;;;;;;;12.18;1.08;;;3.90;99.90;;;;;;5057007;28;20070;-41
2022/01/05 09:50:39;;;;;;;21.58;2.33;;;4.10;99.90;;;;;;5077029;28;20307;-41
2022/01/05 09:53:05;;;;;;;13.30;1.38;;;4.20;99.90;;;;;;5077568;28;20463;-41
2022/01/05 09:55:31;;;;;;;16.48;1.38;;;4.30;99.90;;;;;;5076354;28;20036;-40
2022/01/05 09:57:57;;;;;;;18.30;2.58;;;4.30;99.90;;;;;;5076652;28;20495;-41
2022/01/05 10:00:23;;;;;;;20.33;1.92;;;5.40;99.90;;;;;;5077919;28;20055;-40
2022/01/05 10:02:50;;;;;;;21.88;1.70;;;4.70;99.90;;;;;;5076683;28;20119;-40
2022/01/05 10:05:16;;;;;;;25.55;2.10;;;4.60;99.90;;;;;;5075965;28;20044;-40
2022/01/05 10:07:43;;;;;;;27.55;3.17;;;4.90;99.90;;;;;;5074865;28;20037;-40
2022/01/05 10:10:10;;;;;;;21.95;2.17;;;4.80;99.90;;;;;;5077873;28;20047;-41
2022/01/05 10:12:36;;;;;;;28.33;2.25;;;4.60;99.90;;;;;;5077579;28;20032;-40
2022/01/05 10:15:03;;;;;;;22.27;1.63;;;4.80;99.90;;;;;;5079954;28;20093;-41
2022/01/05 10:17:32;;;;;;;19.58;1.30;;;4.80;99.90;;;;;;5075128;28;20032;-40
2022/01/05 10:20:08;;;;;;;23.58;2.35;;;4.80;99.90;;;;;;5069874;28;20055;-41
2022/01/05 10:22:42;;;;;;;35.05;2.25;;;4.80;99.90;;;;;;5069907;28;20485;-40
2022/01/05 10:25:15;;;;;;;20.98;1.58;;;4.80;99.90;;;;;;5069788;28;20123;-40
2022/01/05 10:27:42;;;;;;;29.30;2.22;;;4.80;99.90;;;;;;5069476;28;20040;-41
2022/01/05 10:30:12;;;;;;;25.77;2.80;;;4.80;99.90;;;;;;5051063;28;20087;-40
2022/01/05 10:32:38;;;;;;;26.92;2.30;;;4.90;99.90;;;;;;5068960;28;20047;-40
2022/01/05 10:35:27;;;;;;;19.67;2.20;;;4.80;99.90;;;;;;5065440;28;20046;-43
2022/01/05 10:38:19;;;;;;;19.70;1.67;;;5.00;99.90;;;;;;5054278;28;20063;-39
2022/01/05 10:40:44;;;;;;;24.73;2.45;;;5.10;99.90;;;;;;5073053;28;20047;-38
2022/01/05 10:43:13;;;;;;;23.42;1.42;;;5.20;99.90;;;;;;5072621;28;20036;-42
2022/01/05 10:45:46;;;;;;;16.58;1.77;;;5.80;99.90;;;;;;5071685;28;20783;-46
2022/01/05 10:48:15;;;;;;;17.73;1.23;;;5.20;99.90;;;;;;5074794;28;20076;-43
2022/01/05 10:50:41;;;;;;;24.75;1.50;;;5.30;99.90;;;;;;5071297;28;20147;-42
2022/01/05 10:53:08;;;;;;;30.20;2.00;;;5.30;99.90;;;;;;5077321;28;20040;-40
2022/01/05 10:55:41;;;;;;;17.73;1.88;;;5.20;99.90;;;;;;5077016;28;20043;-44
2022/01/05 10:58:12;;;;;;;20.77;1.38;;;5.20;99.90;;;;;;5075432;28;20051;-52
2022/01/05 11:00:52;;;;;;;20.33;2.37;;;5.20;99.90;;;;;;5075434;28;20363;-42
2022/01/05 11:03:27;;;;;;;19.55;1.17;;;5.80;99.90;;;;;;5071919;28;20041;-44
2022/01/05 11:06:04;;;;;;;17.50;2.72;;;5.30;99.90;;;;;;5073380;28;20032;-42
2022/01/05 11:08:31;;;;;;;14.07;1.20;;;5.30;99.90;;;;;;5074137;28;20071;-44
2022/01/05 11:10:57;;;;;;;21.63;2.22;;;5.30;99.90;;;;;;5072201;28;20037;-51
2022/01/05 11:13:23;;;;;;;21.65;2.65;;;6.20;99.90;;;;;;5075159;28;20105;-45
2022/01/05 11:15:56;;;;;;;25.60;3.25;;;5.20;99.90;;;;;;5075087;28;20037;-44
2022/01/05 11:18:22;;;;;;;13.20;1.17;;;5.40;99.90;;;;;;5073216;28;20074;-44
2022/01/05 11:21:03;;;;;;;22.83;2.55;;;5.20;99.90;;;;;;5076075;28;20465;-46
2022/01/05 11:23:31;;;;;;;27.02;2.13;;;5.50;99.90;;;;;;5076173;28;20037;-48
2022/01/05 11:25:58;;;;;;;32.03;2.20;;;6.00;99.90;;;;;;5074150;28;20042;-49
2022/01/05 11:28:26;;;;;;;29.38;2.33;;;6.70;99.90;;;;;;5075735;28;20111;-50
2022/01/05 11:30:53;;;;;;;32.90;2.92;;;5.70;99.90;;;;;;5074162;28;20036;-46
2022/01/05 11:33:20;;;;;;;23.73;2.75;;;6.70;99.90;;;;;;5075311;28;20094;-48
2022/01/05 11:35:46;;;;;;;26.80;3.17;;;5.60;99.90;;;;;;5075238;28;20076;-48
2022/01/05 11:38:13;;;;;;;27.67;3.20;;;5.90;99.90;;;;;;5071947;28;20047;-48
2022/01/05 11:40:45;;;;;;;19.27;2.47;;;6.40;99.90;;;;;;5073588;28;20468;-50
2022/01/05 11:43:21;;;;;;;26.48;2.78;;;6.10;99.90;;;;;;5075775;28;20574;-43
2022/01/05 11:45:47;;;;;;;32.53;2.95;;;5.90;99.90;;;;;;5072529;28;20037;-45
2022/01/05 11:48:25;;;;;;;19.33;2.92;;;6.10;99.90;;;;;;5075630;28;20040;-45
2022/01/05 11:50:53;;;;;;;30.75;4.65;;;6.20;99.90;;;;;;5075445;28;20581;-45
2022/01/05 11:53:46;;;;;;;22.30;3.08;;;6.10;99.90;;;;;;5077790;28;20036;-50
2022/01/05 11:56:19;;;;;;;30.05;2.85;;;7.50;99.90;;;;;;5073870;28;20367;-46
2022/01/05 11:59:00;;;;;;;25.35;4.20;;;6.30;99.90;;;;;;5073089;28;20032;-42
2022/01/05 12:01:34;;;;;;;24.08;2.90;;;6.90;99.90;;;;;;5075837;28;20032;-41
2022/01/05 12:04:03;;;;;;;13.50;1.65;;;6.30;99.90;;;;;;5076795;28;20538;-41
2022/01/05 12:06:31;;;;;;;21.58;2.53;;;7.20;99.90;;;;;;5076646;28;20028;-40
2022/01/05 12:09:17;;;;;;;26.23;2.55;;;6.50;99.90;;;;;;5075005;28;20036;-45
2022/01/05 12:11:44;;;;;;;29.85;2.55;;;6.40;99.90;;;;;;5076710;28;20401;-44
2022/01/05 12:14:21;;;;;;;26.75;2.10;;;7.30;99.90;;;;;;5071167;28;20576;-43
2022/01/05 12:16:59;;;;;;;17.70;2.33;;;6.40;99.90;;;;;;5057578;28;20036;-43
2022/01/05 12:19:32;;;;;;;25.65;2.28;;;6.40;99.90;;;;;;5073046;28;20029;-43
2022/01/05 12:22:01;;;;;;;28.75;2.28;;;6.50;99.90;;;;;;5074262;28;20041;-55
2022/01/05 12:25:03;;;;;;;19.60;2.65;;;6.40;99.90;;;;;;5048800;28;20058;-56
2022/01/05 12:27:32;;;;;;;20.58;2.78;;;6.50;99.90;;;;;;5072539;28;20043;-55
2022/01/05 12:30:00;;;;;;;23.35;2.53;;;7.20;99.90;;;;;;5058234;28;20580;-57
2022/01/05 12:32:32;;;;;;;16.83;2.75;;;7.50;99.90;;;;;;5072835;28;20472;-44
2022/01/05 12:35:00;;;;;;;22.23;1.80;;;6.40;99.90;;;;;;5073141;28;20047;-44
2022/01/05 12:37:54;;;;;;;15.93;1.95;;;6.40;99.90;;;;;;5055016;28;20045;-44
2022/01/05 12:40:30;;;;;;;21.88;2.42;;;6.20;99.90;;;;;;5074729;28;20055;-42
2022/01/05 12:43:08;;;;;;;21.52;2.22;;;6.20;99.90;;;;;;5074051;28;20036;-42
2022/01/05 12:45:59;;;;;;;32.42;3.10;;;6.20;99.90;;;;;;5072585;28;20367;-45
2022/01/05 12:48:35;;;;;;;18.75;3.35;;;6.30;99.90;;;;;;5071380;28;20032;-47
2022/01/05 12:51:15;;;;;;;19.10;1.98;;;7.00;99.90;;;;;;5072242;28;20074;-49